Airfield :
LOGIN :

Register | Disclaimer

   EN    FR    IT 

 










Legend :    VFR   Marginal VFR   IFR   Intensive IFR   Very Intensive IFR
Visi :
Ceiling :
>= 8 km
>= 3000ft
5 to 8 km
1000 to 3000 ft
1500m to 5 km
500 to 1000 ft
800 to 1500m
200 to 500 ft
< 800m
< 200 ft
Symbols :   Thunderstorms  Fog  Heavy snow  Heavy precipitations  Wind > 20 kt
SIGMETs :     Misc.  Thunderstorms  Icing  Turbulence  Mountain Waves  Volcanic Ashes







- Airport Elevation : 124 ft
- IATA code : NHT
- Download approach charts


EGWU - RAF Northolt

CURRENT METAR :
  • 201850Z 25012KT 9999 BKN008 13/11 Q1013 GRN BECMG BKN006 YLO1

EXPIRED METARs :
  • 201750Z 25012KT 9999 -DZ BKN012 12/11 Q1012 GRN TEMPO 5000 -RADZ GRN
  • 201650Z 25012KT 9999 BKN014 BKN016 12/11 Q1012 NOSIG

TAF TAF EGWU
Valid from the 20 at 18:00 until the 21 at 12:00 UTC


201628Z 2018/2112 25012KT 9999 BKN010
PROB30
TEMPO 2018/2019 5000 -RADZ SCT006
BECMG 2019/2022 -DZ BKN006
PROB40
TEMPO 2019/2102 3000 RADZ BKN004
PROB30
TEMPO 2102/2106 6000 BKN004
BECMG 2106/2108 NSW SCT008 BKN030
BECMG 2108/2111 FEW018 BKN040
TEMPO 2111/2112 SCT018
No reported NOTAMs for that airfield.



MET'MAP, your aeronautical weather chart ! - Copyright ORBIFLY December 2007 - Disclaimer

ORBIFLY MET'MAP TEAM :

Programming & Development : Alexandra Zaïnal
Concept & Development : Baudouin d'Aumeries
Co-Development & Prog : Marc-Olivier Méhu
Technical & hardware support : Manuel Goepfert

Contact : metmap@orbifly.com




SOURCES & CREDITS :

   NOAA